Main page
METAR-TAF:

METAR-TAF

Airports :

Osijek Airport

Osijek, Croatia

latitude: 45-27N, longitude: 018-48E, elevation: 88 m

Current weather observation

The report was made 18 minutes ago, at 23:30 UTC
Wind 2 kt from the East/Southeast
Temperature 17°C
Humidity 94%
Pressure 1012 hPa
Visibility 10 km or more
no clouds below 1500 m and no cumulonimbus

METAR: LDOS 202330Z 12002KT CAVOK 17/16 Q1012

Time: 01:48 (23:48 UTC)

Forecast

The report was made 23 minutes ago, at 23:25 UTC
Forecast valid from 21 at 00 UTC to 22 at 00 UTC
Wind 2 kt from variable directions
Visibility 10 km or more
no clouds below 1500 m and no cumulonimbus
Becoming
from 21 at 07 UTC to 21 at 09 UTC
Wind 7 kt from the East/Southeast
Probability 30% :
Temporary
from 21 at 15 UTC to 22 at 00 UTC
Wind 18 kt from the Southwest
Few clouds at a height of 4000 ft, Cumulonimbus.
thunderstorm, rain

TAF: LDOS 202325Z 2100/2200 VRB02KT CAVOK TX30/2113Z TN15/2103Z BECMG 2107/2109 11007KT PROB30 TEMPO 2115/2200 23018KT TSRA FEW040CB

Weather observations and forecasts of more than 4000 airports (METAR and TAF reports).

The available stations are represented by yellow and red dots on the map.

Hover mouse over dot to see the name of the station.

Then click to see weather observations and forecasts.

To change the map : click on the green buttons with a black cross to zoom in, on the green button with a dash to zoom out, or on the green arrows for adjacent maps.


METAR-TAF: